Time;durP1;ratioP1;P1;durP2;ratioP2;P2;SDS_P1;SDS_P2;PMS_P1;PMS_P2;Temp;Humidity;BMP_temperature;BMP_pressure;BME280_temperature;BME280_humidity;BME280_pressure;Samples;Min_cycle;Max_cycle;Signal;HPM_P1;HPM_P2
2023/08/17 00:01:29;;;;;;;2.40;1.97;;;29.70;47.30;;;;;;4974618;28;93015;-59
2023/08/17 00:03:58;;;;;;;2.50;1.70;;;29.70;47.30;;;;;;4976132;28;92129;-59
2023/08/17 00:06:26;;;;;;;2.33;1.87;;;29.70;47.20;;;;;;4975520;28;94806;-60
2023/08/17 00:08:54;;;;;;;1.93;1.73;;;29.70;47.20;;;;;;4975513;28;92625;-59
2023/08/17 00:11:22;;;;;;;2.00;1.53;;;29.70;47.20;;;;;;4975763;28;92583;-59
2023/08/17 00:13:51;;;;;;;2.20;1.50;;;29.70;47.20;;;;;;4974839;28;92089;-59
2023/08/17 00:16:19;;;;;;;2.13;1.73;;;29.70;47.20;;;;;;4975415;28;93119;-59
2023/08/17 00:18:48;;;;;;;2.00;1.53;;;29.70;47.20;;;;;;4975294;28;93523;-59
2023/08/17 00:21:17;;;;;;;1.93;1.50;;;29.70;47.20;;;;;;4975881;28;92592;-59
2023/08/17 00:23:45;;;;;;;2.23;1.70;;;29.60;47.10;;;;;;4975265;28;92151;-59
2023/08/17 00:26:14;;;;;;;2.00;1.77;;;29.60;47.10;;;;;;4973588;28;94293;-59
2023/08/17 00:28:42;;;;;;;2.47;1.70;;;29.60;47.10;;;;;;4974900;28;93771;-59
2023/08/17 00:31:10;;;;;;;3.83;2.30;;;29.60;47.10;;;;;;4975047;28;92204;-59
2023/08/17 00:33:41;;;;;;;2.67;2.27;;;29.60;47.10;;;;;;4975088;28;92025;-60
2023/08/17 00:36:11;;;;;;;3.03;1.93;;;29.60;47.20;;;;;;4975072;28;93072;-60
2023/08/17 00:38:39;;;;;;;2.37;1.87;;;29.60;47.10;;;;;;4975086;28;93814;-59
2023/08/17 00:41:07;;;;;;;3.93;2.13;;;29.60;47.10;;;;;;4975170;28;92735;-59
2023/08/17 00:43:36;;;;;;;3.57;2.20;;;29.60;47.10;;;;;;4973827;28;91398;-59
2023/08/17 00:46:04;;;;;;;4.07;2.20;;;29.60;47.10;;;;;;4974344;28;93061;-59
2023/08/17 00:48:32;;;;;;;2.57;2.23;;;29.60;47.10;;;;;;4974541;28;94962;-59
2023/08/17 00:51:01;;;;;;;3.40;2.27;;;29.50;47.00;;;;;;4974051;28;92981;-59
2023/08/17 00:53:32;;;;;;;3.40;2.60;;;29.60;47.10;;;;;;4974468;28;92156;-59
2023/08/17 00:56:00;;;;;;;3.70;2.13;;;29.50;47.00;;;;;;4974693;28;93438;-59
2023/08/17 00:58:29;;;;;;;4.10;2.93;;;29.50;47.00;;;;;;4975196;28;92078;-59
2023/08/17 01:00:57;;;;;;;2.73;2.40;;;29.50;47.00;;;;;;4974914;28;92712;-59
2023/08/17 01:03:25;;;;;;;3.13;2.40;;;29.50;47.00;;;;;;4974597;28;92132;-59
2023/08/17 01:05:53;;;;;;;2.60;2.30;;;29.50;47.00;;;;;;4973454;28;94280;-59
2023/08/17 01:08:21;;;;;;;8.03;2.93;;;29.50;47.10;;;;;;4974438;28;92902;-59
2023/08/17 01:10:54;;;;;;;3.00;2.50;;;29.50;47.10;;;;;;4974488;28;92150;-59
2023/08/17 01:13:24;;;;;;;4.60;2.50;;;29.50;47.10;;;;;;4974665;28;92685;-59
2023/08/17 01:15:55;;;;;;;4.77;2.53;;;29.50;47.20;;;;;;4973821;28;94242;-59
2023/08/17 01:18:25;;;;;;;6.17;3.23;;;29.50;47.10;;;;;;4973959;28;94893;-59
2023/08/17 01:20:53;;;;;;;3.77;2.93;;;29.50;47.20;;;;;;4974799;28;92088;-59
2023/08/17 01:23:23;;;;;;;6.73;2.80;;;29.40;47.10;;;;;;4973614;28;92122;-59
2023/08/17 01:25:53;;;;;;;4.43;2.93;;;29.50;47.20;;;;;;4974120;28;94274;-59
2023/08/17 01:28:21;;;;;;;4.80;3.30;;;29.50;47.10;;;;;;4974120;28;92770;-59
2023/08/17 01:30:53;;;;;;;3.97;3.10;;;29.50;47.20;;;;;;4974024;28;92202;-59
2023/08/17 01:33:24;;;;;;;3.77;3.23;;;29.40;47.10;;;;;;4974649;28;91297;-59
2023/08/17 01:35:58;;;;;;;4.03;3.10;;;29.40;47.10;;;;;;4973996;28;94093;-59
2023/08/17 01:38:27;;;;;;;5.37;3.07;;;29.40;47.20;;;;;;4973450;28;93825;-59
2023/08/17 01:40:56;;;;;;;3.73;2.93;;;29.40;47.10;;;;;;4974101;28;92965;-59
2023/08/17 01:43:24;;;;;;;3.50;2.80;;;29.40;47.10;;;;;;4973803;28;92860;-59
2023/08/17 01:45:52;;;;;;;3.97;3.13;;;29.40;47.10;;;;;;4973819;28;93085;-59
2023/08/17 01:48:20;;;;;;;3.87;2.63;;;29.40;47.10;;;;;;4974219;28;93932;-59
2023/08/17 01:50:48;;;;;;;4.10;2.53;;;29.40;47.10;;;;;;4974011;28;91968;-59
2023/08/17 01:53:17;;;;;;;4.20;2.50;;;29.40;47.00;;;;;;4973681;28;92067;-59
2023/08/17 01:55:46;;;;;;;3.90;2.67;;;29.40;47.00;;;;;;4975563;28;94153;-59
2023/08/17 01:58:14;;;;;;;4.87;2.60;;;29.40;47.00;;;;;;4977405;28;93793;-60
2023/08/17 02:00:43;;;;;;;3.87;2.93;;;29.40;47.10;;;;;;4977877;28;92041;-59
2023/08/17 02:03:11;;;;;;;3.00;2.40;;;29.40;47.10;;;;;;4977342;28;92085;-59
2023/08/17 02:05:39;;;;;;;4.73;3.27;;;29.30;47.00;;;;;;4976771;28;94757;-59
2023/08/17 02:08:07;;;;;;;3.83;2.97;;;29.30;47.00;;;;;;4976558;28;96791;-59
2023/08/17 02:10:35;;;;;;;4.13;2.83;;;29.30;47.60;;;;;;4977185;28;92172;-59
2023/08/17 02:13:05;;;;;;;4.30;2.83;;;29.30;47.00;;;;;;4976905;28;92103;-59
2023/08/17 02:15:44;;;;;;;4.67;3.43;;;29.30;47.00;;;;;;4977198;28;94260;-59
2023/08/17 02:18:13;;;;;;;5.47;3.03;;;29.30;47.00;;;;;;4977298;28;92761;-59
2023/08/17 02:20:41;;;;;;;4.57;2.90;;;29.30;47.00;;;;;;4976875;28;92689;-59
2023/08/17 02:23:09;;;;;;;4.13;2.97;;;29.30;47.00;;;;;;4976888;28;91403;-59
2023/08/17 02:25:39;;;;;;;4.83;3.00;;;29.30;47.00;;;;;;4976240;28;94180;-59
2023/08/17 02:28:08;;;;;;;5.77;3.17;;;29.30;47.00;;;;;;4975966;28;93953;-59
2023/08/17 02:30:37;;;;;;;3.67;2.70;;;29.30;47.00;;;;;;4976075;28;93034;-59
2023/08/17 02:33:05;;;;;;;5.70;2.80;;;29.20;46.90;;;;;;4976841;28;92118;-59
2023/08/17 02:35:34;;;;;;;5.30;3.40;;;29.20;46.90;;;;;;4975548;28;93282;-59
2023/08/17 02:38:02;;;;;;;3.70;2.83;;;29.20;46.90;;;;;;4976992;28;92009;-59
2023/08/17 02:40:30;;;;;;;4.00;2.67;;;29.20;46.90;;;;;;4976850;28;92716;-59
2023/08/17 02:42:58;;;;;;;3.17;2.43;;;29.20;46.90;;;;;;4976316;28;92191;-59
2023/08/17 02:45:27;;;;;;;3.83;2.80;;;29.20;46.90;;;;;;4975903;28;94194;-59
2023/08/17 02:47:56;;;;;;;4.87;3.20;;;29.20;46.90;;;;;;4976336;28;93821;-59
2023/08/17 02:50:24;;;;;;;5.07;3.40;;;29.20;47.00;;;;;;4976733;28;92617;-59
2023/08/17 02:52:52;;;;;;;4.80;3.07;;;29.20;47.60;;;;;;4975908;28;92541;-59
2023/08/17 02:55:20;;;;;;;4.30;2.83;;;29.20;47.00;;;;;;4975249;28;93856;-59
2023/08/17 02:57:48;;;;;;;4.47;2.83;;;29.20;47.00;;;;;;4976106;28;92356;-59
2023/08/17 03:00:16;;;;;;;3.47;2.63;;;29.20;47.00;;;;;;4977112;28;92144;-59
2023/08/17 03:02:46;;;;;;;4.27;2.97;;;29.10;47.00;;;;;;4976359;28;92007;-59
2023/08/17 03:05:14;;;;;;;5.83;2.77;;;29.10;47.00;;;;;;4976484;28;94330;-59
2023/08/17 03:07:42;;;;;;;4.07;2.40;;;29.10;47.00;;;;;;4975246;28;93787;-59
2023/08/17 03:10:11;;;;;;;3.83;2.60;;;29.10;47.00;;;;;;4976753;28;92080;-59
2023/08/17 03:12:39;;;;;;;3.13;2.07;;;29.10;47.00;;;;;;4975177;28;91447;-59
2023/08/17 03:15:07;;;;;;;2.60;1.87;;;29.10;47.00;;;;;;4975620;28;94022;-59
2023/08/17 03:17:36;;;;;;;2.97;2.00;;;29.10;47.00;;;;;;4975087;28;93911;-59
2023/08/17 03:20:06;;;;;;;2.30;2.00;;;29.10;47.00;;;;;;4975803;28;93019;-59
2023/08/17 03:22:35;;;;;;;2.13;1.90;;;29.10;46.90;;;;;;4976269;28;92089;-59
2023/08/17 03:25:03;;;;;;;3.53;1.77;;;29.10;46.90;;;;;;4975547;28;94317;-59
2023/08/17 03:27:31;;;;;;;2.60;2.20;;;29.10;47.00;;;;;;4991336;28;94249;-59
2023/08/17 03:29:59;;;;;;;3.10;2.33;;;29.10;46.90;;;;;;4995367;28;92612;-59
2023/08/17 03:32:27;;;;;;;3.63;2.20;;;29.10;46.90;;;;;;4995965;28;92077;-59
2023/08/17 03:34:56;;;;;;;3.83;2.97;;;29.10;46.90;;;;;;4995770;28;92091;-59
2023/08/17 03:37:25;;;;;;;6.13;2.83;;;29.10;46.90;;;;;;4996146;28;92604;-59
2023/08/17 03:39:54;;;;;;;4.70;2.87;;;29.10;46.90;;;;;;4995335;28;92268;-59
2023/08/17 03:42:22;;;;;;;4.93;2.83;;;29.00;46.90;;;;;;4994892;28;92118;-59
2023/08/17 03:44:50;;;;;;;3.67;2.73;;;29.00;46.90;;;;;;4995198;28;94283;-59
2023/08/17 03:47:18;;;;;;;6.33;2.93;;;29.00;46.90;;;;;;4995610;28;93444;-59
2023/08/17 03:49:47;;;;;;;5.33;2.90;;;29.00;46.90;;;;;;4995675;28;92232;-59
2023/08/17 03:52:15;;;;;;;3.53;2.67;;;29.00;46.90;;;;;;4995324;28;92230;-59
2023/08/17 03:54:44;;;;;;;3.70;2.77;;;29.00;46.90;;;;;;4994839;28;93086;-59
2023/08/17 03:57:13;;;;;;;3.67;2.77;;;29.00;46.90;;;;;;4995003;28;92381;-59
2023/08/17 03:59:42;;;;;;;6.20;3.10;;;29.00;46.90;;;;;;4995603;28;92106;-59
2023/08/17 04:02:10;;;;;;;6.07;3.10;;;29.00;46.90;;;;;;4995340;28;91448;-59
2023/08/17 04:04:38;;;;;;;2.47;2.27;;;29.00;47.00;;;;;;4994302;28;93305;-59
2023/08/17 04:07:07;;;;;;;3.17;2.40;;;29.00;47.00;;;;;;4994195;28;92798;-59
2023/08/17 04:09:35;;;;;;;3.27;2.73;;;29.00;47.00;;;;;;4994687;28;93043;-59
2023/08/17 04:12:05;;;;;;;5.00;2.70;;;28.90;46.90;;;;;;4992806;28;92255;-59
2023/08/17 04:14:34;;;;;;;6.07;2.90;;;28.90;47.00;;;;;;4992516;28;93241;-59
2023/08/17 04:17:02;;;;;;;3.63;2.50;;;29.00;47.00;;;;;;4997635;28;92479;-59
2023/08/17 04:19:30;;;;;;;3.67;2.70;;;28.90;47.00;;;;;;4997547;28;92015;-59
2023/08/17 04:21:59;;;;;;;3.20;2.90;;;28.90;47.00;;;;;;4998191;28;92144;-59
2023/08/17 04:24:27;;;;;;;4.47;2.77;;;28.90;47.10;;;;;;4997118;28;91809;-59
2023/08/17 04:26:55;;;;;;;6.67;2.80;;;28.90;47.00;;;;;;4998193;28;93846;-59
2023/08/17 04:29:24;;;;;;;4.10;2.73;;;28.90;47.10;;;;;;4997493;28;92194;-59
2023/08/17 04:31:53;;;;;;;2.53;2.33;;;28.90;47.10;;;;;;4997254;28;91842;-59
2023/08/17 04:34:21;;;;;;;4.53;2.13;;;28.90;47.10;;;;;;4996921;28;94028;-59
2023/08/17 04:36:49;;;;;;;3.30;2.33;;;28.80;47.10;;;;;;4997425;28;93637;-59
2023/08/17 04:39:17;;;;;;;4.33;2.83;;;28.90;47.10;;;;;;4998530;28;92058;-59
2023/08/17 04:41:45;;;;;;;3.20;2.70;;;28.80;47.10;;;;;;4997704;28;92084;-59
2023/08/17 04:44:13;;;;;;;5.60;2.70;;;28.80;47.10;;;;;;4997356;28;92925;-59
2023/08/17 04:46:43;;;;;;;3.70;2.83;;;28.80;47.10;;;;;;4996877;28;93834;-59
2023/08/17 04:49:11;;;;;;;3.33;2.53;;;28.80;47.10;;;;;;4997573;28;91747;-59
2023/08/17 04:51:39;;;;;;;2.30;2.10;;;28.80;47.10;;;;;;4997948;28;91271;-59
2023/08/17 04:54:08;;;;;;;3.30;2.10;;;28.80;47.00;;;;;;4996954;28;93039;-59
2023/08/17 04:56:36;;;;;;;4.37;2.23;;;28.80;47.00;;;;;;4997493;28;92079;-59
2023/08/17 04:59:04;;;;;;;2.80;2.17;;;28.80;47.00;;;;;;4996711;28;94219;-59
2023/08/17 05:01:33;;;;;;;3.03;2.20;;;28.80;47.00;;;;;;4996784;28;92270;-59
2023/08/17 05:04:02;;;;;;;4.07;2.30;;;28.80;47.00;;;;;;4997486;28;94206;-59
2023/08/17 05:06:30;;;;;;;3.27;2.03;;;28.90;47.10;;;;;;4997515;28;92747;-59
2023/08/17 05:08:59;;;;;;;4.43;2.43;;;28.80;47.00;;;;;;4997551;28;92068;-59
2023/08/17 05:11:27;;;;;;;4.30;1.93;;;28.80;47.00;;;;;;4997084;28;92158;-59
2023/08/17 05:13:55;;;;;;;2.13;1.93;;;28.90;47.10;;;;;;4996380;28;94156;-59
2023/08/17 05:16:23;;;;;;;3.00;1.57;;;28.80;47.00;;;;;;4997192;28;93883;-59
2023/08/17 05:18:51;;;;;;;5.07;2.03;;;28.90;47.00;;;;;;4997300;28;92171;-59
2023/08/17 05:21:21;;;;;;;2.03;1.70;;;28.90;47.00;;;;;;4997291;28;91883;-59
2023/08/17 05:23:49;;;;;;;3.30;2.20;;;28.80;47.00;;;;;;4996546;28;94174;-59
2023/08/17 05:26:17;;;;;;;2.33;1.90;;;28.80;47.00;;;;;;4997404;28;93612;-59
2023/08/17 05:28:45;;;;;;;3.17;2.03;;;28.80;47.00;;;;;;4997751;28;92058;-59
2023/08/17 05:31:13;;;;;;;4.47;2.07;;;28.80;47.00;;;;;;5000024;28;91955;-59
2023/08/17 05:33:42;;;;;;;2.37;1.80;;;28.80;47.00;;;;;;5000464;28;94226;-59
2023/08/17 05:36:10;;;;;;;4.17;2.00;;;28.80;47.00;;;;;;4999989;28;92825;-59
2023/08/17 05:38:40;;;;;;;3.20;1.93;;;28.80;47.00;;;;;;5000659;28;92062;-59
2023/08/17 05:41:08;;;;;;;2.60;1.93;;;28.80;47.00;;;;;;5001180;28;92413;-59
2023/08/17 05:43:36;;;;;;;2.30;1.73;;;28.80;47.00;;;;;;5000256;28;94384;-59
2023/08/17 05:46:04;;;;;;;2.53;1.53;;;28.80;47.00;;;;;;4999696;28;93757;-59
2023/08/17 05:48:33;;;;;;;2.90;1.43;;;28.80;47.00;;;;;;4999725;28;92998;-59
2023/08/17 05:51:01;;;;;;;1.60;1.27;;;28.70;47.00;;;;;;5000503;28;93969;-59
2023/08/17 05:53:29;;;;;;;2.37;1.40;;;28.70;47.00;;;;;;5000409;28;93289;-59
2023/08/17 05:55:59;;;;;;;1.90;1.47;;;28.70;47.00;;;;;;4999536;28;92460;-59
2023/08/17 05:58:27;;;;;;;1.63;1.50;;;28.70;47.00;;;;;;4999996;28;92181;-59
2023/08/17 06:00:55;;;;;;;1.97;1.30;;;28.70;47.00;;;;;;5000523;28;92067;-59
2023/08/17 06:03:24;;;;;;;2.70;1.40;;;28.70;47.00;;;;;;5000425;28;94420;-59
2023/08/17 06:05:53;;;;;;;1.47;1.37;;;28.70;47.00;;;;;;5000285;28;92746;-59
2023/08/17 06:08:22;;;;;;;1.27;1.17;;;28.70;47.00;;;;;;5000577;28;91764;-59
2023/08/17 06:10:50;;;;;;;1.20;1.10;;;28.70;47.00;;;;;;4998876;28;92077;-59
2023/08/17 06:13:19;;;;;;;2.33;1.27;;;28.70;47.00;;;;;;4998750;28;95113;-59
2023/08/17 06:15:47;;;;;;;1.17;0.90;;;28.70;47.00;;;;;;4999853;28;94853;-59
2023/08/17 06:18:16;;;;;;;1.20;0.93;;;28.60;46.90;;;;;;5000215;28;91907;-59
2023/08/17 06:20:46;;;;;;;1.20;1.07;;;28.70;47.00;;;;;;4999850;28;92171;-59
2023/08/17 06:23:14;;;;;;;1.53;1.10;;;28.70;47.00;;;;;;5000032;28;93505;-59
2023/08/17 06:25:42;;;;;;;0.80;0.70;;;28.70;47.00;;;;;;4999541;28;92727;-59
2023/08/17 06:28:10;;;;;;;1.37;1.10;;;28.70;46.90;;;;;;5000454;28;91801;-59
2023/08/17 06:30:40;;;;;;;3.07;1.17;;;28.70;47.00;;;;;;5000261;28;91325;-59
2023/08/17 06:33:08;;;;;;;2.00;1.30;;;28.70;46.90;;;;;;4999754;28;94172;-59
2023/08/17 06:35:36;;;;;;;0.60;0.60;;;28.70;46.90;;;;;;4999588;28;92897;-59
2023/08/17 06:38:05;;;;;;;1.40;1.00;;;28.70;46.90;;;;;;4998996;28;93019;-59
2023/08/17 06:40:33;;;;;;;2.47;1.43;;;28.70;46.90;;;;;;4999460;28;92058;-59
2023/08/17 06:43:01;;;;;;;0.97;0.90;;;28.70;46.90;;;;;;4996921;28;94951;-59
2023/08/17 06:45:29;;;;;;;1.10;0.80;;;28.70;46.90;;;;;;4999355;28;92713;-59
2023/08/17 06:47:58;;;;;;;0.83;0.80;;;28.70;46.90;;;;;;4999312;28;92067;-59
2023/08/17 06:50:28;;;;;;;3.23;1.17;;;28.70;46.90;;;;;;4998697;28;92120;-59
2023/08/17 06:52:56;;;;;;;1.60;1.03;;;28.80;46.90;;;;;;4999601;28;94079;-59
2023/08/17 06:55:24;;;;;;;1.43;0.70;;;28.80;46.80;;;;;;4999933;28;92828;-59
2023/08/17 06:57:52;;;;;;;1.37;0.73;;;28.80;46.70;;;;;;4999071;28;92012;-59
2023/08/17 07:00:21;;;;;;;0.90;0.90;;;28.80;46.70;;;;;;4999186;28;92216;-59
2023/08/17 07:02:49;;;;;;;2.07;1.00;;;28.90;46.70;;;;;;4998139;28;95063;-59
2023/08/17 07:05:24;;;;;;;0.87;0.80;;;28.90;46.70;;;;;;4998763;28;94833;-59
2023/08/17 07:07:53;;;;;;;1.07;0.70;;;28.90;46.60;;;;;;4999504;28;92064;-59
2023/08/17 07:10:21;;;;;;;2.60;1.00;;;28.90;46.60;;;;;;4998461;28;92059;-59
2023/08/17 07:12:49;;;;;;;1.43;0.73;;;28.90;47.30;;;;;;4998323;28;94348;-59
2023/08/17 07:15:17;;;;;;;1.70;0.80;;;28.90;46.60;;;;;;4999216;28;91844;-59
2023/08/17 07:17:45;;;;;;;0.77;0.70;;;28.90;46.60;;;;;;4999368;28;91935;-59
2023/08/17 07:20:14;;;;;;;0.77;0.73;;;28.90;46.60;;;;;;4999339;28;91328;-59
2023/08/17 07:22:50;;;;;;;0.40;0.40;;;29.00;46.60;;;;;;4998987;28;94197;-59
2023/08/17 07:25:18;;;;;;;0.50;0.40;;;29.00;47.30;;;;;;4998062;28;92843;-59
2023/08/17 07:27:46;;;;;;;0.50;0.50;;;29.00;46.60;;;;;;4998328;28;93053;-59
2023/08/17 07:30:15;;;;;;;0.87;0.57;;;28.90;46.50;;;;;;4999305;28;92107;-59
2023/08/17 07:32:43;;;;;;;2.07;0.83;;;29.00;46.50;;;;;;4998400;28;92979;-59
2023/08/17 07:35:11;;;;;;;1.60;0.70;;;29.00;46.60;;;;;;4998682;28;93878;-59
2023/08/17 07:37:39;;;;;;;0.70;0.70;;;29.00;46.50;;;;;;4998413;28;92131;-59
2023/08/17 07:40:10;;;;;;;2.00;0.57;;;29.00;46.50;;;;;;4998858;28;91935;-59
2023/08/17 07:42:38;;;;;;;0.47;0.43;;;29.00;46.50;;;;;;4998474;28;93123;-59
2023/08/17 07:45:07;;;;;;;0.70;0.60;;;29.00;46.50;;;;;;4999196;28;93915;-59
2023/08/17 07:47:36;;;;;;;1.23;1.00;;;29.00;46.50;;;;;;4998780;28;91764;-59
2023/08/17 07:50:05;;;;;;;1.70;0.90;;;29.00;46.50;;;;;;4998201;28;92103;-59
2023/08/17 07:52:33;;;;;;;0.70;0.70;;;29.00;46.50;;;;;;4997531;28;95118;-59
2023/08/17 07:55:01;;;;;;;0.60;0.60;;;29.00;46.50;;;;;;4998125;28;92474;-59
2023/08/17 07:57:30;;;;;;;0.40;0.40;;;29.00;46.50;;;;;;4998925;28;92085;-59
2023/08/17 07:59:59;;;;;;;0.50;0.50;;;29.00;46.50;;;;;;4998234;28;92197;-59
2023/08/17 08:02:27;;;;;;;1.00;0.70;;;29.00;46.50;;;;;;4998205;28;93111;-59
2023/08/17 08:04:55;;;;;;;0.60;0.57;;;29.00;46.50;;;;;;4998476;28;93835;-59
2023/08/17 08:07:23;;;;;;;0.80;0.50;;;29.00;46.40;;;;;;4998761;28;91992;-59
2023/08/17 08:09:52;;;;;;;3.30;0.63;;;29.00;46.40;;;;;;4998154;28;91382;-59
2023/08/17 08:12:20;;;;;;;0.40;0.40;;;29.00;46.40;;;;;;4996760;28;93236;-59
2023/08/17 08:14:51;;;;;;;1.23;0.47;;;29.00;46.40;;;;;;4997929;28;92731;-59
2023/08/17 08:17:19;;;;;;;0.53;0.53;;;29.00;46.30;;;;;;4997244;28;93043;-59
2023/08/17 08:19:47;;;;;;;2.23;0.57;;;29.00;46.30;;;;;;4997593;28;91942;-59
2023/08/17 08:22:16;;;;;;;1.90;0.50;;;29.10;46.40;;;;;;4997703;28;93113;-58
2023/08/17 08:24:44;;;;;;;0.60;0.60;;;29.10;46.40;;;;;;4997874;28;93988;-59
2023/08/17 08:27:12;;;;;;;0.40;0.40;;;29.10;46.40;;;;;;4998586;28;91939;-59
2023/08/17 08:29:40;;;;;;;0.30;0.30;;;29.10;46.40;;;;;;4997645;28;92050;-59
2023/08/17 08:32:10;;;;;;;0.40;0.40;;;29.10;46.40;;;;;;4997009;28;93209;-59
2023/08/17 08:34:38;;;;;;;0.40;0.40;;;29.10;46.40;;;;;;4998161;28;93740;-59
2023/08/17 08:37:06;;;;;;;0.47;0.47;;;29.10;46.40;;;;;;4998260;28;91992;-59
2023/08/17 08:39:34;;;;;;;0.20;0.20;;;29.10;46.40;;;;;;4997509;28;92017;-59
2023/08/17 08:42:03;;;;;;;0.30;0.30;;;29.10;46.40;;;;;;4993574;28;95149;-59
2023/08/17 08:44:31;;;;;;;0.80;0.50;;;29.10;46.40;;;;;;4997151;28;93878;-58
2023/08/17 08:46:59;;;;;;;0.43;0.43;;;29.10;46.40;;;;;;4998147;28;91907;-59
2023/08/17 08:49:28;;;;;;;0.63;0.60;;;29.10;46.40;;;;;;4997411;28;92055;-58
2023/08/17 08:51:59;;;;;;;0.40;0.40;;;29.10;46.40;;;;;;4996980;28;94199;-59
2023/08/17 08:54:27;;;;;;;0.47;0.47;;;29.10;46.40;;;;;;4996750;28;92965;-59
2023/08/17 08:56:58;;;;;;;0.83;0.50;;;29.10;47.00;;;;;;4997485;28;92482;-59
2023/08/17 08:59:27;;;;;;;0.40;0.40;;;29.10;46.40;;;;;;4997993;28;91401;-59
2023/08/17 09:01:56;;;;;;;0.40;0.40;;;29.10;46.40;;;;;;4997565;28;94122;-58
2023/08/17 09:04:24;;;;;;;0.30;0.30;;;29.10;46.50;;;;;;4998990;28;93870;-59
2023/08/17 09:06:54;;;;;;;0.30;0.30;;;29.10;46.50;;;;;;5003183;28;92961;-59
2023/08/17 09:09:22;;;;;;;0.63;0.60;;;29.10;46.50;;;;;;5003891;28;92098;-58
2023/08/17 09:11:57;;;;;;;0.77;0.40;;;29.10;46.50;;;;;;5003204;28;94319;-59
2023/08/17 09:14:25;;;;;;;0.50;0.47;;;29.10;46.50;;;;;;5003256;28;93980;-58
2023/08/17 09:16:53;;;;;;;1.60;0.67;;;29.10;46.40;;;;;;5004383;28;91751;-59
2023/08/17 09:19:21;;;;;;;0.40;0.40;;;29.10;46.50;;;;;;5004071;28;92044;-59
2023/08/17 09:21:50;;;;;;;0.30;0.30;;;29.10;46.50;;;;;;5003199;28;93096;-59
2023/08/17 09:24:20;;;;;;;0.40;0.40;;;29.10;46.50;;;;;;5003193;28;93782;-59
2023/08/17 09:26:48;;;;;;;1.07;0.30;;;29.10;46.50;;;;;;5004385;28;92220;-59
2023/08/17 09:29:20;;;;;;;0.43;0.40;;;29.10;46.50;;;;;;5004203;28;92112;-58
2023/08/17 09:31:48;;;;;;;1.07;0.40;;;29.10;46.50;;;;;;5002333;28;95091;-59
2023/08/17 09:34:17;;;;;;;1.67;0.57;;;29.10;46.50;;;;;;5003286;28;94702;-58
2023/08/17 09:36:47;;;;;;;0.83;0.70;;;29.10;46.50;;;;;;5002945;28;92034;-59
2023/08/17 09:39:16;;;;;;;1.57;0.87;;;29.10;46.50;;;;;;5002899;28;92183;-58
2023/08/17 09:41:46;;;;;;;1.17;0.97;;;29.10;46.50;;;;;;5002576;28;92943;-59
2023/08/17 09:44:14;;;;;;;1.40;1.00;;;29.20;46.50;;;;;;5003324;28;93711;-58
2023/08/17 09:46:45;;;;;;;2.30;0.90;;;29.20;46.50;;;;;;5003095;28;92124;-59
2023/08/17 09:49:13;;;;;;;1.00;0.80;;;29.10;46.50;;;;;;5003813;28;91306;-58
2023/08/17 09:51:43;;;;;;;1.20;1.03;;;29.10;46.50;;;;;;5002517;28;93090;-59
2023/08/17 09:54:19;;;;;;;5.27;1.20;;;29.20;46.50;;;;;;5003187;28;91994;-59
2023/08/17 09:56:49;;;;;;;2.03;1.00;;;29.20;46.50;;;;;;5002926;28;92892;-59
2023/08/17 09:59:17;;;;;;;1.03;0.93;;;29.20;46.50;;;;;;5003589;28;92108;-59
2023/08/17 10:01:45;;;;;;;0.80;0.80;;;29.30;46.50;;;;;;5003360;28;93966;-59
2023/08/17 10:04:13;;;;;;;3.80;1.20;;;29.20;46.50;;;;;;5003364;28;92716;-59
2023/08/17 10:06:42;;;;;;;2.90;1.40;;;29.30;46.50;;;;;;5003402;28;92043;-59
2023/08/17 10:09:10;;;;;;;1.50;1.03;;;29.30;46.50;;;;;;5002655;28;92757;-58
2023/08/17 10:11:38;;;;;;;1.53;1.27;;;29.30;46.50;;;;;;5002272;28;94242;-59
2023/08/17 10:14:12;;;;;;;2.20;1.17;;;29.30;46.50;;;;;;4997456;28;92802;-58
2023/08/17 10:16:44;;;;;;;1.60;1.20;;;29.30;46.50;;;;;;4978849;28;92112;-59
2023/08/17 10:19:17;;;;;;;1.93;1.20;;;29.30;46.50;;;;;;4977369;28;92014;-58
2023/08/17 10:21:49;;;;;;;1.63;1.30;;;29.30;46.50;;;;;;4976687;28;95142;-58
2023/08/17 10:24:18;;;;;;;2.00;1.10;;;29.30;46.50;;;;;;4975716;28;93588;-59
2023/08/17 10:26:47;;;;;;;1.90;1.10;;;29.30;46.50;;;;;;4976874;28;92092;-59
2023/08/17 10:29:16;;;;;;;2.27;1.40;;;29.30;46.50;;;;;;4976723;28;92026;-58
2023/08/17 10:31:45;;;;;;;1.27;0.97;;;29.30;46.50;;;;;;4976636;28;94086;-60
2023/08/17 10:34:14;;;;;;;1.87;1.30;;;29.30;46.50;;;;;;4976678;28;93888;-59
2023/08/17 10:36:42;;;;;;;2.07;1.37;;;29.30;46.50;;;;;;4976995;28;92071;-59
2023/08/17 10:39:21;;;;;;;1.27;1.17;;;29.30;46.50;;;;;;4976414;28;91841;-58
2023/08/17 10:41:52;;;;;;;2.37;1.33;;;29.30;46.60;;;;;;4976257;28;94266;-59
2023/08/17 10:44:39;;;;;;;3.90;1.60;;;29.30;46.60;;;;;;4975845;28;92729;-58
2023/08/17 10:47:23;;;;;;;2.77;1.43;;;29.30;46.60;;;;;;4975633;28;93119;-58
2023/08/17 10:49:52;;;;;;;1.87;1.33;;;29.30;46.60;;;;;;4975818;28;92787;-58
2023/08/17 10:52:27;;;;;;;1.57;1.10;;;29.30;46.60;;;;;;4976339;28;94206;-58
2023/08/17 10:54:56;;;;;;;2.27;1.10;;;29.40;46.70;;;;;;4976459;28;92639;-59
2023/08/17 10:57:34;;;;;;;1.07;0.97;;;29.40;46.70;;;;;;4975964;28;92591;-59
2023/08/17 11:00:26;;;;;;;1.37;1.20;;;29.30;46.60;;;;;;4976198;28;92187;-59
2023/08/17 11:02:56;;;;;;;1.50;1.23;;;29.40;46.70;;;;;;4972548;28;93315;-59
2023/08/17 11:05:41;;;;;;;1.83;0.80;;;29.40;46.60;;;;;;4976135;28;92843;-58
2023/08/17 11:08:10;;;;;;;1.67;0.90;;;29.40;46.70;;;;;;4976606;28;92650;-59
2023/08/17 11:10:39;;;;;;;1.07;0.83;;;29.40;46.70;;;;;;4976181;28;92176;-59
2023/08/17 11:13:07;;;;;;;4.93;1.33;;;29.40;46.70;;;;;;4975540;28;94031;-59
2023/08/17 11:15:42;;;;;;;1.03;0.93;;;29.40;46.70;;;;;;4976270;28;94905;-58
2023/08/17 11:18:10;;;;;;;2.60;1.13;;;29.40;46.70;;;;;;4976079;28;92068;-59
2023/08/17 11:20:40;;;;;;;1.60;1.20;;;29.40;46.70;;;;;;4976576;28;92952;-59
2023/08/17 11:23:10;;;;;;;2.90;1.70;;;29.50;46.70;;;;;;4988026;28;93314;-59
2023/08/17 11:25:38;;;;;;;1.90;1.50;;;29.40;46.70;;;;;;4978736;28;92657;-59
2023/08/17 11:28:08;;;;;;;1.10;1.03;;;29.50;46.70;;;;;;4978356;28;92199;-59
2023/08/17 11:30:38;;;;;;;2.03;1.47;;;29.50;46.70;;;;;;4979039;28;91428;-59
2023/08/17 11:33:08;;;;;;;1.90;1.40;;;29.50;46.60;;;;;;4977802;28;94427;-59
2023/08/17 11:35:36;;;;;;;2.57;1.47;;;29.50;46.60;;;;;;4978176;28;93727;-59
2023/08/17 11:38:05;;;;;;;3.63;2.17;;;29.50;46.60;;;;;;4978137;28;93305;-59
2023/08/17 11:40:36;;;;;;;2.20;1.70;;;29.50;46.60;;;;;;4978303;28;92055;-59
2023/08/17 11:43:05;;;;;;;2.00;1.80;;;29.60;46.70;;;;;;4977839;28;93308;-59
2023/08/17 11:45:33;;;;;;;3.20;1.80;;;29.60;46.70;;;;;;4978915;28;93809;-59
2023/08/17 11:48:03;;;;;;;1.40;1.30;;;29.60;46.70;;;;;;4978988;28;91968;-59
2023/08/17 11:50:32;;;;;;;4.03;2.10;;;29.60;46.70;;;;;;4978820;28;92160;-59
2023/08/17 11:53:01;;;;;;;2.87;1.90;;;29.60;46.70;;;;;;4978519;28;94097;-59
2023/08/17 11:55:29;;;;;;;3.73;2.07;;;29.60;46.70;;;;;;4978598;28;93838;-59
2023/08/17 11:57:57;;;;;;;2.07;1.53;;;29.60;46.70;;;;;;4978577;28;91870;-59
2023/08/17 12:00:26;;;;;;;2.50;2.03;;;29.60;46.70;;;;;;4978484;28;92125;-59
2023/08/17 12:02:54;;;;;;;3.03;1.80;;;29.60;46.70;;;;;;4977673;28;94065;-58
2023/08/17 12:05:23;;;;;;;2.77;1.57;;;29.60;46.70;;;;;;4978721;28;94808;-59
2023/08/17 12:07:53;;;;;;;4.70;1.47;;;29.60;46.70;;;;;;4978948;28;91941;-59
2023/08/17 12:10:23;;;;;;;2.90;1.67;;;29.60;46.70;;;;;;4978448;28;92099;-59
2023/08/17 12:12:51;;;;;;;4.30;1.33;;;29.60;46.70;;;;;;4978167;28;93101;-59
2023/08/17 12:15:19;;;;;;;3.13;1.63;;;29.60;46.70;;;;;;4977423;28;92925;-59
2023/08/17 12:17:47;;;;;;;2.60;1.23;;;29.60;46.70;;;;;;4978238;28;91993;-59
2023/08/17 12:20:17;;;;;;;2.70;1.97;;;29.60;46.70;;;;;;4977917;28;91253;-59
2023/08/17 12:22:46;;;;;;;2.00;1.37;;;29.60;46.70;;;;;;4977527;28;93072;-59
2023/08/17 12:25:15;;;;;;;2.87;1.90;;;29.70;46.70;;;;;;4977811;28;92443;-59
2023/08/17 12:27:43;;;;;;;1.90;1.17;;;29.60;46.70;;;;;;4978046;28;92923;-58
2023/08/17 12:30:27;;;;;;;2.13;1.50;;;29.70;46.70;;;;;;4976746;28;92028;-59
2023/08/17 12:32:55;;;;;;;1.93;1.43;;;29.70;46.70;;;;;;4977604;28;93035;-59
2023/08/17 12:35:25;;;;;;;1.57;1.17;;;29.70;46.70;;;;;;4977619;28;92716;-58
2023/08/17 12:37:54;;;;;;;4.83;1.40;;;29.70;46.70;;;;;;4977622;28;92039;-59
2023/08/17 12:40:24;;;;;;;1.57;1.17;;;29.70;46.70;;;;;;4976868;28;91923;-58
2023/08/17 12:42:52;;;;;;;1.10;0.97;;;29.70;46.80;;;;;;4977634;28;93842;-59
2023/08/17 12:45:20;;;;;;;1.53;1.37;;;29.70;46.70;;;;;;4977773;28;92680;-58
2023/08/17 12:47:48;;;;;;;1.70;1.10;;;29.70;46.70;;;;;;4977828;28;91968;-59
2023/08/17 12:50:17;;;;;;;1.57;0.97;;;29.70;46.70;;;;;;4977537;28;92054;-58
2023/08/17 12:52:45;;;;;;;1.77;0.70;;;29.70;46.70;;;;;;4976581;28;95177;-59
2023/08/17 12:55:14;;;;;;;1.10;1.00;;;29.70;46.70;;;;;;4977658;28;94901;-59
2023/08/17 12:57:43;;;;;;;1.10;1.00;;;29.70;46.70;;;;;;4978554;28;92005;-59